sensor_id;sensor_type;location;lat;lon;timestamp;pressure;altitude;pressure_sealevel;temperature;humidity
52185;BME280;38160;52.876;18.778;2022-10-16T00:00:51;100732.75;;;13.33;93.14
52185;BME280;38160;52.876;18.778;2022-10-16T00:03:25;100731.88;;;13.32;93.25
52185;BME280;38160;52.876;18.778;2022-10-16T00:05:59;100723.44;;;13.31;93.29
52185;BME280;38160;52.876;18.778;2022-10-16T00:08:31;100731.56;;;13.31;93.40
52185;BME280;38160;52.876;18.778;2022-10-16T00:11:12;100724.13;;;13.29;93.56
52185;BME280;38160;52.876;18.778;2022-10-16T00:13:47;100717.00;;;13.28;93.67
52185;BME280;38160;52.876;18.778;2022-10-16T00:16:20;100719.36;;;13.27;93.76
52185;BME280;38160;52.876;18.778;2022-10-16T00:18:52;100721.41;;;13.25;93.80
52185;BME280;38160;52.876;18.778;2022-10-16T00:21:27;100725.16;;;13.24;93.75
52185;BME280;38160;52.876;18.778;2022-10-16T00:24:06;100731.93;;;13.24;93.73
52185;BME280;38160;52.876;18.778;2022-10-16T00:26:37;100729.39;;;13.23;93.80
52185;BME280;38160;52.876;18.778;2022-10-16T00:29:10;100735.33;;;13.22;93.87
52185;BME280;38160;52.876;18.778;2022-10-16T00:31:42;100746.48;;;13.23;93.83
52185;BME280;38160;52.876;18.778;2022-10-16T00:34:13;100751.91;;;13.23;93.76
52185;BME280;38160;52.876;18.778;2022-10-16T00:36:45;100750.94;;;13.16;93.87
52185;BME280;38160;52.876;18.778;2022-10-16T00:39:17;100751.46;;;13.15;93.77
52185;BME280;38160;52.876;18.778;2022-10-16T00:41:49;100751.13;;;13.10;93.87
52185;BME280;38160;52.876;18.778;2022-10-16T00:44:52;100746.77;;;13.05;93.86
52185;BME280;38160;52.876;18.778;2022-10-16T00:47:30;100751.02;;;12.99;93.73
52185;BME280;38160;52.876;18.778;2022-10-16T00:52:48;100751.96;;;12.79;94.06
52185;BME280;38160;52.876;18.778;2022-10-16T00:55:22;100754.21;;;12.72;94.21
52185;BME280;38160;52.876;18.778;2022-10-16T00:57:54;100755.94;;;12.65;94.19
52185;BME280;38160;52.876;18.778;2022-10-16T01:00:26;100743.94;;;12.59;94.29
52185;BME280;38160;52.876;18.778;2022-10-16T01:03:00;100746.81;;;12.53;94.42
52185;BME280;38160;52.876;18.778;2022-10-16T01:05:43;100759.36;;;12.50;94.57
52185;BME280;38160;52.876;18.778;2022-10-16T01:11:30;100757.70;;;12.41;94.64
52185;BME280;38160;52.876;18.778;2022-10-16T01:16:55;100762.13;;;12.34;94.76
52185;BME280;38160;52.876;18.778;2022-10-16T01:22:49;100752.52;;;12.23;94.75
52185;BME280;38160;52.876;18.778;2022-10-16T01:25:39;100754.55;;;12.17;94.97
52185;BME280;38160;52.876;18.778;2022-10-16T01:28:29;100754.03;;;12.13;94.96
52185;BME280;38160;52.876;18.778;2022-10-16T01:31:03;100755.73;;;12.10;94.98
52185;BME280;38160;52.876;18.778;2022-10-16T01:33:42;100762.83;;;12.07;94.91
52185;BME280;38160;52.876;18.778;2022-10-16T01:36:19;100752.36;;;12.04;95.18
52185;BME280;38160;52.876;18.778;2022-10-16T01:38:51;100761.16;;;11.98;95.22
52185;BME280;38160;52.876;18.778;2022-10-16T01:41:40;100760.99;;;11.95;95.44
52185;BME280;38160;52.876;18.778;2022-10-16T01:44:28;100764.21;;;11.95;95.38
52185;BME280;38160;52.876;18.778;2022-10-16T01:47:01;100765.41;;;11.92;95.74
52185;BME280;38160;52.876;18.778;2022-10-16T01:49:35;100766.91;;;11.91;95.98
52185;BME280;38160;52.876;18.778;2022-10-16T01:52:09;100764.38;;;11.93;96.03
52185;BME280;38160;52.876;18.778;2022-10-16T01:54:45;100764.53;;;11.96;96.59
52185;BME280;38160;52.876;18.778;2022-10-16T01:57:20;100769.42;;;11.96;96.35
52185;BME280;38160;52.876;18.778;2022-10-16T01:59:56;100770.30;;;11.97;96.49
52185;BME280;38160;52.876;18.778;2022-10-16T02:02:30;100774.00;;;12.00;96.53
52185;BME280;38160;52.876;18.778;2022-10-16T02:05:26;100776.03;;;12.02;96.64
52185;BME280;38160;52.876;18.778;2022-10-16T02:08:02;100781.80;;;12.03;96.76
52185;BME280;38160;52.876;18.778;2022-10-16T02:10:35;100781.44;;;12.06;96.89
52185;BME280;38160;52.876;18.778;2022-10-16T02:16:02;100781.77;;;12.11;96.90
52185;BME280;38160;52.876;18.778;2022-10-16T02:18:34;100788.88;;;12.16;97.02
52185;BME280;38160;52.876;18.778;2022-10-16T02:24:08;100783.63;;;12.23;96.91
52185;BME280;38160;52.876;18.778;2022-10-16T02:29:59;100769.91;;;12.25;97.21
52185;BME280;38160;52.876;18.778;2022-10-16T02:32:32;100784.27;;;12.29;97.25
52185;BME280;38160;52.876;18.778;2022-10-16T02:35:05;100780.88;;;12.31;97.04
52185;BME280;38160;52.876;18.778;2022-10-16T02:37:39;100775.82;;;12.32;97.21
52185;BME280;38160;52.876;18.778;2022-10-16T02:40:12;100776.30;;;12.36;97.27
52185;BME280;38160;52.876;18.778;2022-10-16T02:42:44;100771.91;;;12.39;97.27
52185;BME280;38160;52.876;18.778;2022-10-16T02:45:16;100771.23;;;12.41;97.25
52185;BME280;38160;52.876;18.778;2022-10-16T02:47:48;100772.23;;;12.44;97.17
52185;BME280;38160;52.876;18.778;2022-10-16T02:50:20;100772.91;;;12.46;97.10
52185;BME280;38160;52.876;18.778;2022-10-16T02:52:52;100771.71;;;12.45;97.14
52185;BME280;38160;52.876;18.778;2022-10-16T02:55:24;100779.50;;;12.48;97.29
52185;BME280;38160;52.876;18.778;2022-10-16T02:57:56;100774.93;;;12.48;97.29
52185;BME280;38160;52.876;18.778;2022-10-16T03:00:28;100772.58;;;12.49;97.51
52185;BME280;38160;52.876;18.778;2022-10-16T03:02:59;100769.67;;;12.51;97.40
52185;BME280;38160;52.876;18.778;2022-10-16T03:05:31;100764.61;;;12.52;97.28
52185;BME280;38160;52.876;18.778;2022-10-16T03:08:03;100762.22;;;12.53;97.35
52185;BME280;38160;52.876;18.778;2022-10-16T03:10:35;100772.53;;;12.53;97.37
52185;BME280;38160;52.876;18.778;2022-10-16T03:13:07;100777.10;;;12.57;97.40
52185;BME280;38160;52.876;18.778;2022-10-16T03:15:39;100779.65;;;12.58;97.21
52185;BME280;38160;52.876;18.778;2022-10-16T03:18:10;100781.67;;;12.61;97.35
52185;BME280;38160;52.876;18.778;2022-10-16T03:20:43;100779.64;;;12.63;97.31
52185;BME280;38160;52.876;18.778;2022-10-16T03:23:14;100776.58;;;12.62;97.27
52185;BME280;38160;52.876;18.778;2022-10-16T03:25:46;100769.81;;;12.62;97.40
52185;BME280;38160;52.876;18.778;2022-10-16T03:28:18;100765.91;;;12.64;97.46
52185;BME280;38160;52.876;18.778;2022-10-16T03:30:50;100768.61;;;12.64;97.46
52185;BME280;38160;52.876;18.778;2022-10-16T03:33:22;100771.47;;;12.67;97.47
52185;BME280;38160;52.876;18.778;2022-10-16T03:35:54;100776.89;;;12.67;97.52
52185;BME280;38160;52.876;18.778;2022-10-16T03:38:25;100790.61;;;12.69;97.44
52185;BME280;38160;52.876;18.778;2022-10-16T03:40:57;100787.39;;;12.70;97.40
52185;BME280;38160;52.876;18.778;2022-10-16T03:43:29;100797.19;;;12.71;97.45
52185;BME280;38160;52.876;18.778;2022-10-16T03:46:01;100794.48;;;12.71;97.30
52185;BME280;38160;52.876;18.778;2022-10-16T03:48:32;100800.24;;;12.72;97.30
52185;BME280;38160;52.876;18.778;2022-10-16T03:51:05;100800.24;;;12.72;97.50
52185;BME280;38160;52.876;18.778;2022-10-16T03:53:36;100792.44;;;12.73;97.58
52185;BME280;38160;52.876;18.778;2022-10-16T03:56:08;100792.59;;;12.75;97.48
52185;BME280;38160;52.876;18.778;2022-10-16T03:58:40;100790.92;;;12.74;97.37
52185;BME280;38160;52.876;18.778;2022-10-16T04:01:11;100796.17;;;12.76;97.52
52185;BME280;38160;52.876;18.778;2022-10-16T04:03:43;100803.95;;;12.75;97.50
52185;BME280;38160;52.876;18.778;2022-10-16T04:06:15;100800.41;;;12.74;97.59
52185;BME280;38160;52.876;18.778;2022-10-16T04:08:47;100796.34;;;12.74;97.50
52185;BME280;38160;52.876;18.778;2022-10-16T04:11:19;100803.78;;;12.76;97.65
52185;BME280;38160;52.876;18.778;2022-10-16T04:13:50;100806.13;;;12.79;97.55
52185;BME280;38160;52.876;18.778;2022-10-16T04:16:22;100802.22;;;12.82;97.54
52185;BME280;38160;52.876;18.778;2022-10-16T04:18:54;100811.70;;;12.82;97.62
52185;BME280;38160;52.876;18.778;2022-10-16T04:21:26;100811.38;;;12.81;97.57
52185;BME280;38160;52.876;18.778;2022-10-16T04:23:57;100817.11;;;12.82;97.73
52185;BME280;38160;52.876;18.778;2022-10-16T04:26:29;100813.23;;;12.85;97.57
52185;BME280;38160;52.876;18.778;2022-10-16T04:29:01;100816.63;;;12.87;97.70
52185;BME280;38160;52.876;18.778;2022-10-16T04:31:33;100823.39;;;12.87;97.51
52185;BME280;38160;52.876;18.778;2022-10-16T04:34:05;100820.84;;;12.85;97.56
52185;BME280;38160;52.876;18.778;2022-10-16T04:36:36;100814.08;;;12.85;97.60
52185;BME280;38160;52.876;18.778;2022-10-16T04:39:08;100816.10;;;12.87;97.71
52185;BME280;38160;52.876;18.778;2022-10-16T04:41:40;100815.43;;;12.85;97.62
52185;BME280;38160;52.876;18.778;2022-10-16T04:44:12;100818.30;;;12.88;97.77
52185;BME280;38160;52.876;18.778;2022-10-16T04:46:44;100815.22;;;12.91;97.73
52185;BME280;38160;52.876;18.778;2022-10-16T04:49:15;100822.52;;;12.90;97.70
52185;BME280;38160;52.876;18.778;2022-10-16T04:51:47;100823.55;;;12.89;97.65
52185;BME280;38160;52.876;18.778;2022-10-16T04:54:19;100825.90;;;12.88;97.67
52185;BME280;38160;52.876;18.778;2022-10-16T04:56:51;100820.16;;;12.91;97.83
52185;BME280;38160;52.876;18.778;2022-10-16T04:59:24;100818.78;;;12.95;97.83
52185;BME280;38160;52.876;18.778;2022-10-16T05:01:55;100824.00;;;12.97;97.71
52185;BME280;38160;52.876;18.778;2022-10-16T05:04:27;100810.66;;;12.95;97.73
52185;BME280;38160;52.876;18.778;2022-10-16T05:06:59;100812.66;;;12.97;97.85
52185;BME280;38160;52.876;18.778;2022-10-16T05:09:31;100820.09;;;12.99;97.78
52185;BME280;38160;52.876;18.778;2022-10-16T05:12:03;100821.28;;;13.01;97.74
52185;BME280;38160;52.876;18.778;2022-10-16T05:14:35;100826.54;;;13.03;97.77
52185;BME280;38160;52.876;18.778;2022-10-16T05:17:07;100828.73;;;13.03;97.76
52185;BME280;38160;52.876;18.778;2022-10-16T05:19:39;100827.89;;;13.03;97.63
52185;BME280;38160;52.876;18.778;2022-10-16T05:22:11;100830.08;;;13.03;97.73
52185;BME280;38160;52.876;18.778;2022-10-16T05:24:43;100834.47;;;13.04;97.87
52185;BME280;38160;52.876;18.778;2022-10-16T05:27:15;100836.69;;;13.05;97.85
52185;BME280;38160;52.876;18.778;2022-10-16T05:29:48;100839.55;;;13.07;97.88
52185;BME280;38160;52.876;18.778;2022-10-16T05:32:20;100845.96;;;13.10;97.98
52185;BME280;38160;52.876;18.778;2022-10-16T05:34:52;100841.05;;;13.14;97.87
52185;BME280;38160;52.876;18.778;2022-10-16T05:37:24;100853.23;;;13.18;97.85
52185;BME280;38160;52.876;18.778;2022-10-16T05:39:56;100850.50;;;13.22;97.73
52185;BME280;38160;52.876;18.778;2022-10-16T05:42:27;100855.23;;;13.24;97.71
52185;BME280;38160;52.876;18.778;2022-10-16T05:44:59;100851.16;;;13.28;97.72
52185;BME280;38160;52.876;18.778;2022-10-16T05:47:31;100866.73;;;13.30;97.62
52185;BME280;38160;52.876;18.778;2022-10-16T05:50:03;100862.34;;;13.29;97.66
52185;BME280;38160;52.876;18.778;2022-10-16T05:52:35;100859.95;;;13.30;97.70
52185;BME280;38160;52.876;18.778;2022-10-16T05:55:07;100859.79;;;13.32;97.76
52185;BME280;38160;52.876;18.778;2022-10-16T05:57:39;100856.39;;;13.26;98.17
52185;BME280;38160;52.876;18.778;2022-10-16T06:00:11;100878.91;;;13.34;98.08
52185;BME280;38160;52.876;18.778;2022-10-16T06:02:43;100881.63;;;13.34;98.30
52185;BME280;38160;52.876;18.778;2022-10-16T06:05:15;100882.65;;;13.37;98.48
52185;BME280;38160;52.876;18.778;2022-10-16T06:07:47;100886.70;;;13.41;98.42
52185;BME280;38160;52.876;18.778;2022-10-16T06:10:18;100881.42;;;13.44;98.60
52185;BME280;38160;52.876;18.778;2022-10-16T06:12:50;100884.95;;;13.49;98.64
52185;BME280;38160;52.876;18.778;2022-10-16T06:15:22;100891.05;;;13.51;98.53
52185;BME280;38160;52.876;18.778;2022-10-16T06:17:54;100887.66;;;13.53;98.57
52185;BME280;38160;52.876;18.778;2022-10-16T06:20:26;100900.47;;;13.59;98.44
52185;BME280;38160;52.876;18.778;2022-10-16T06:22:57;100899.98;;;13.59;98.50
52185;BME280;38160;52.876;18.778;2022-10-16T06:25:30;100902.85;;;13.62;98.50
52185;BME280;38160;52.876;18.778;2022-10-16T06:28:02;100903.67;;;13.67;98.60
52185;BME280;38160;52.876;18.778;2022-10-16T06:30:34;100904.48;;;13.71;98.46
52185;BME280;38160;52.876;18.778;2022-10-16T06:33:06;100901.41;;;13.74;98.33
52185;BME280;38160;52.876;18.778;2022-10-16T06:35:38;100904.45;;;13.79;98.37
52185;BME280;38160;52.876;18.778;2022-10-16T06:38:10;100909.33;;;13.84;98.25
52185;BME280;38160;52.876;18.778;2022-10-16T06:40:41;100910.84;;;13.87;98.17
52185;BME280;38160;52.876;18.778;2022-10-16T06:43:14;100903.86;;;13.92;98.15
52185;BME280;38160;52.876;18.778;2022-10-16T06:45:54;100901.25;;;14.03;98.09
52185;BME280;38160;52.876;18.778;2022-10-16T06:48:27;100894.52;;;14.14;98.07
52185;BME280;38160;52.876;18.778;2022-10-16T06:51:05;100887.02;;;14.20;97.99
52185;BME280;38160;52.876;18.778;2022-10-16T06:53:41;100889.53;;;14.26;97.77
52185;BME280;38160;52.876;18.778;2022-10-16T06:56:16;100899.98;;;14.33;97.52
52185;BME280;38160;52.876;18.778;2022-10-16T06:58:51;100905.90;;;14.36;97.69
52185;BME280;38160;52.876;18.778;2022-10-16T07:01:25;100903.99;;;14.41;97.75
52185;BME280;38160;52.876;18.778;2022-10-16T07:03:57;100912.80;;;14.43;97.60
52185;BME280;38160;52.876;18.778;2022-10-16T07:06:31;100910.22;;;14.45;97.72
52185;BME280;38160;52.876;18.778;2022-10-16T07:09:06;100918.86;;;14.49;97.78
52185;BME280;38160;52.876;18.778;2022-10-16T07:11:40;100913.05;;;14.52;97.64
52185;BME280;38160;52.876;18.778;2022-10-16T07:14:17;100918.31;;;14.58;97.62
52185;BME280;38160;52.876;18.778;2022-10-16T07:16:50;100918.10;;;14.59;97.79
52185;BME280;38160;52.876;18.778;2022-10-16T07:19:23;100916.57;;;14.61;98.23
52185;BME280;38160;52.876;18.778;2022-10-16T07:21:56;100914.86;;;14.60;98.21
52185;BME280;38160;52.876;18.778;2022-10-16T07:24:28;100915.07;;;14.58;98.66
52185;BME280;38160;52.876;18.778;2022-10-16T07:27:00;100917.58;;;14.60;98.75
52185;BME280;38160;52.876;18.778;2022-10-16T07:29:31;100918.59;;;14.63;98.92
52185;BME280;38160;52.876;18.778;2022-10-16T07:32:04;100911.63;;;14.64;99.16
52185;BME280;38160;52.876;18.778;2022-10-16T07:34:36;100916.98;;;14.69;99.25
52185;BME280;38160;52.876;18.778;2022-10-16T07:37:07;100925.48;;;14.70;99.32
52185;BME280;38160;52.876;18.778;2022-10-16T07:39:39;100936.62;;;14.75;99.52
52185;BME280;38160;52.876;18.778;2022-10-16T07:42:11;100942.55;;;14.78;99.49
52185;BME280;38160;52.876;18.778;2022-10-16T07:44:43;100946.77;;;14.81;99.81
52185;BME280;38160;52.876;18.778;2022-10-16T07:47:14;100948.44;;;14.82;99.93
52185;BME280;38160;52.876;18.778;2022-10-16T07:49:46;100956.59;;;14.82;100.00
52185;BME280;38160;52.876;18.778;2022-10-16T07:52:18;100955.55;;;14.87;100.00
52185;BME280;38160;52.876;18.778;2022-10-16T07:54:50;100952.93;;;14.94;100.00
52185;BME280;38160;52.876;18.778;2022-10-16T07:57:21;100946.72;;;15.04;100.00
52185;BME280;38160;52.876;18.778;2022-10-16T07:59:53;100952.18;;;15.15;100.00
52185;BME280;38160;52.876;18.778;2022-10-16T08:02:25;100951.22;;;15.26;100.00
52185;BME280;38160;52.876;18.778;2022-10-16T08:04:57;100965.87;;;15.36;100.00
52185;BME280;38160;52.876;18.778;2022-10-16T08:07:29;100965.22;;;15.49;100.00
52185;BME280;38160;52.876;18.778;2022-10-16T08:10:00;100964.91;;;15.59;100.00
52185;BME280;38160;52.876;18.778;2022-10-16T08:12:32;100961.39;;;15.69;100.00
52185;BME280;38160;52.876;18.778;2022-10-16T08:15:05;100959.70;;;15.83;100.00
52185;BME280;38160;52.876;18.778;2022-10-16T08:17:37;100964.02;;;15.92;100.00
52185;BME280;38160;52.876;18.778;2022-10-16T08:20:10;100955.41;;;15.99;100.00
52185;BME280;38160;52.876;18.778;2022-10-16T08:22:42;100954.43;;;16.07;100.00
52185;BME280;38160;52.876;18.778;2022-10-16T08:25:14;100955.23;;;16.12;99.94
52185;BME280;38160;52.876;18.778;2022-10-16T08:27:46;100961.90;;;16.20;100.00
52185;BME280;38160;52.876;18.778;2022-10-16T08:30:19;100962.49;;;16.26;99.93
52185;BME280;38160;52.876;18.778;2022-10-16T08:32:52;100959.47;;;16.36;99.86
52185;BME280;38160;52.876;18.778;2022-10-16T08:35:24;100968.97;;;16.46;99.49
52185;BME280;38160;52.876;18.778;2022-10-16T08:37:56;100970.55;;;16.56;99.27
52185;BME280;38160;52.876;18.778;2022-10-16T08:40:29;100971.25;;;16.64;99.33
52185;BME280;38160;52.876;18.778;2022-10-16T08:46:35;100970.80;;;16.82;98.24
52185;BME280;38160;52.876;18.778;2022-10-16T08:49:24;100965.06;;;16.88;98.59
52185;BME280;38160;52.876;18.778;2022-10-16T08:52:00;100968.30;;;16.98;98.14
52185;BME280;38160;52.876;18.778;2022-10-16T08:54:47;100964.37;;;17.07;98.37
52185;BME280;38160;52.876;18.778;2022-10-16T08:57:22;100971.56;;;17.15;97.36
52185;BME280;38160;52.876;18.778;2022-10-16T09:00:14;100970.62;;;17.19;97.58
52185;BME280;38160;52.876;18.778;2022-10-16T09:11:39;100961.38;;;17.30;96.24
52185;BME280;38160;52.876;18.778;2022-10-16T09:17:01;100968.96;;;17.35;95.87
52185;BME280;38160;52.876;18.778;2022-10-16T09:23:15;100985.33;;;17.52;95.66
52185;BME280;38160;52.876;18.778;2022-10-16T09:25:49;100984.27;;;17.53;95.08
52185;BME280;38160;52.876;18.778;2022-10-16T09:28:21;100980.81;;;17.56;95.11
52185;BME280;38160;52.876;18.778;2022-10-16T09:30:53;100975.77;;;17.52;93.96
52185;BME280;38160;52.876;18.778;2022-10-16T09:33:32;100982.95;;;17.43;94.41
52185;BME280;38160;52.876;18.778;2022-10-16T09:36:08;100985.25;;;17.39;94.70
52185;BME280;38160;52.876;18.778;2022-10-16T09:38:40;100992.94;;;17.46;94.99
52185;BME280;38160;52.876;18.778;2022-10-16T09:41:20;100990.89;;;17.55;94.52
52185;BME280;38160;52.876;18.778;2022-10-16T09:43:55;101004.77;;;17.60;93.71
52185;BME280;38160;52.876;18.778;2022-10-16T09:46:31;100992.13;;;17.70;94.35
52185;BME280;38160;52.876;18.778;2022-10-16T09:49:19;100997.34;;;17.82;93.96
52185;BME280;38160;52.876;18.778;2022-10-16T09:52:05;100956.01;;;17.68;93.86
52185;BME280;38160;52.876;18.778;2022-10-16T09:54:51;100989.63;;;17.92;93.80
52185;BME280;38160;52.876;18.778;2022-10-16T09:57:27;100990.56;;;17.96;93.93
52185;BME280;38160;52.876;18.778;2022-10-16T10:00:04;100994.89;;;17.94;93.36
52185;BME280;38160;52.876;18.778;2022-10-16T10:02:41;100993.72;;;17.92;92.59
52185;BME280;38160;52.876;18.778;2022-10-16T10:05:27;100992.05;;;17.98;93.65
52185;BME280;38160;52.876;18.778;2022-10-16T10:08:02;100991.14;;;18.08;93.42
52185;BME280;38160;52.876;18.778;2022-10-16T10:10:41;100986.97;;;18.19;93.03
52185;BME280;38160;52.876;18.778;2022-10-16T10:13:22;100990.66;;;18.29;92.85
52185;BME280;38160;52.876;18.778;2022-10-16T10:15:55;100991.01;;;18.37;92.18
52185;BME280;38160;52.876;18.778;2022-10-16T10:18:27;100995.22;;;18.46;92.67
52185;BME280;38160;52.876;18.778;2022-10-16T10:21:02;100991.23;;;18.55;92.17
52185;BME280;38160;52.876;18.778;2022-10-16T10:23:36;100988.84;;;18.63;91.75
52185;BME280;38160;52.876;18.778;2022-10-16T10:26:17;100982.11;;;18.65;91.97
52185;BME280;38160;52.876;18.778;2022-10-16T10:29:03;100985.05;;;18.70;92.14
52185;BME280;38160;52.876;18.778;2022-10-16T10:35:01;100972.97;;;18.75;91.54
52185;BME280;38160;52.876;18.778;2022-10-16T10:40:52;100978.77;;;18.90;90.57
52185;BME280;38160;52.876;18.778;2022-10-16T10:46:42;100985.08;;;19.17;90.34
52185;BME280;38160;52.876;18.778;2022-10-16T10:52:37;100985.03;;;19.37;89.98
52185;BME280;38160;52.876;18.778;2022-10-16T11:04:58;101004.82;;;19.82;88.60
52185;BME280;38160;52.876;18.778;2022-10-16T11:07:36;100993.75;;;19.86;88.74
52185;BME280;38160;52.876;18.778;2022-10-16T11:10:19;100987.16;;;19.93;88.61
52185;BME280;38160;52.876;18.778;2022-10-16T11:13:07;100983.77;;;20.05;87.67
52185;BME280;38160;52.876;18.778;2022-10-16T11:15:39;100988.67;;;20.12;87.78
52185;BME280;38160;52.876;18.778;2022-10-16T11:18:17;100985.36;;;20.19;87.64
52185;BME280;38160;52.876;18.778;2022-10-16T11:21:06;100997.53;;;20.30;87.58
52185;BME280;38160;52.876;18.778;2022-10-16T11:23:43;100990.63;;;20.36;87.30
52185;BME280;38160;52.876;18.778;2022-10-16T11:26:21;101003.46;;;20.43;87.17
52185;BME280;38160;52.876;18.778;2022-10-16T11:28:56;101003.42;;;20.49;87.33
52185;BME280;38160;52.876;18.778;2022-10-16T11:31:45;100996.52;;;20.56;86.72
52185;BME280;38160;52.876;18.778;2022-10-16T11:34:34;100996.19;;;20.55;86.29
52185;BME280;38160;52.876;18.778;2022-10-16T11:37:21;100995.89;;;20.54;86.28
52185;BME280;38160;52.876;18.778;2022-10-16T11:40:05;101007.16;;;20.55;84.60
52185;BME280;38160;52.876;18.778;2022-10-16T11:42:41;101003.58;;;20.54;85.94
52185;BME280;38160;52.876;18.778;2022-10-16T11:45:37;101000.69;;;20.65;85.81
52185;BME280;38160;52.876;18.778;2022-10-16T12:03:40;101022.37;;;20.73;84.07
52185;BME280;38160;52.876;18.778;2022-10-16T12:06:37;101015.70;;;20.56;84.07
52185;BME280;38160;52.876;18.778;2022-10-16T12:09:45;101017.66;;;20.49;84.47
52185;BME280;38160;52.876;18.778;2022-10-16T12:12:41;101005.41;;;20.51;83.30
52185;BME280;38160;52.876;18.778;2022-10-16T12:15:27;101011.19;;;20.52;83.70
52185;BME280;38160;52.876;18.778;2022-10-16T12:17:59;101010.65;;;20.53;83.75
52185;BME280;38160;52.876;18.778;2022-10-16T12:20:32;101012.02;;;20.53;82.82
52185;BME280;38160;52.876;18.778;2022-10-16T12:23:06;101013.55;;;20.49;83.53
52185;BME280;38160;52.876;18.778;2022-10-16T12:25:42;101001.59;;;20.52;83.16
52185;BME280;38160;52.876;18.778;2022-10-16T12:28:21;100985.97;;;20.53;83.23
52185;BME280;38160;52.876;18.778;2022-10-16T12:30:59;100988.81;;;20.62;83.13
52185;BME280;38160;52.876;18.778;2022-10-16T12:33:34;100991.88;;;20.72;82.94
52185;BME280;38160;52.876;18.778;2022-10-16T12:36:17;100985.50;;;20.78;82.79
52185;BME280;38160;52.876;18.778;2022-10-16T12:38:54;100996.63;;;20.84;82.79
52185;BME280;38160;52.876;18.778;2022-10-16T12:41:29;101013.50;;;20.87;82.39
52185;BME280;38160;52.876;18.778;2022-10-16T12:44:02;101002.63;;;20.74;81.97
52185;BME280;38160;52.876;18.778;2022-10-16T12:46:38;101011.69;;;20.74;82.13
52185;BME280;38160;52.876;18.778;2022-10-16T12:49:31;101006.53;;;20.75;82.04
52185;BME280;38160;52.876;18.778;2022-10-16T12:52:34;101006.96;;;20.72;82.23
52185;BME280;38160;52.876;18.778;2022-10-16T12:55:03;101008.78;;;20.69;82.07
52185;BME280;38160;52.876;18.778;2022-10-16T13:01:04;101024.83;;;20.66;81.88
52185;BME280;38160;52.876;18.778;2022-10-16T13:07:23;101019.64;;;20.57;81.64
52185;BME280;38160;52.876;18.778;2022-10-16T13:16:02;101024.89;;;20.52;81.43
52185;BME280;38160;52.876;18.778;2022-10-16T13:19:15;101031.25;;;20.46;80.76
52185;BME280;38160;52.876;18.778;2022-10-16T13:22:32;101047.45;;;20.38;81.12
52185;BME280;38160;52.876;18.778;2022-10-16T13:28:08;101040.04;;;20.23;80.98
52185;BME280;38160;52.876;18.778;2022-10-16T13:30:43;101037.75;;;20.20;81.07
52185;BME280;38160;52.876;18.778;2022-10-16T13:33:26;101032.15;;;20.17;80.88
52185;BME280;38160;52.876;18.778;2022-10-16T13:36:23;101031.56;;;20.09;80.89
52185;BME280;38160;52.876;18.778;2022-10-16T13:39:06;101047.52;;;20.03;80.74
52185;BME280;38160;52.876;18.778;2022-10-16T13:41:39;101043.53;;;19.98;80.90
52185;BME280;38160;52.876;18.778;2022-10-16T13:44:18;101040.46;;;19.97;80.81
52185;BME280;38160;52.876;18.778;2022-10-16T13:47:00;101048.05;;;19.95;80.77
52185;BME280;38160;52.876;18.778;2022-10-16T13:49:33;101042.30;;;19.88;80.67
52185;BME280;38160;52.876;18.778;2022-10-16T13:52:05;101045.69;;;19.83;80.74
52185;BME280;38160;52.876;18.778;2022-10-16T13:54:37;101048.75;;;19.77;80.82
52185;BME280;38160;52.876;18.778;2022-10-16T13:57:17;101052.97;;;19.73;80.87
52185;BME280;38160;52.876;18.778;2022-10-16T13:59:46;101053.28;;;19.68;80.66
52185;BME280;38160;52.876;18.778;2022-10-16T14:02:28;101051.70;;;19.63;80.85
52185;BME280;38160;52.876;18.778;2022-10-16T14:05:08;101057.91;;;19.61;80.81
52185;BME280;38160;52.876;18.778;2022-10-16T14:07:42;101060.80;;;19.56;80.96
52185;BME280;38160;52.876;18.778;2022-10-16T14:10:25;101067.74;;;19.52;80.56
52185;BME280;38160;52.876;18.778;2022-10-16T14:13:04;101066.28;;;19.50;80.94
52185;BME280;38160;52.876;18.778;2022-10-16T14:15:36;101081.54;;;19.48;80.91
52185;BME280;38160;52.876;18.778;2022-10-16T14:18:13;101081.64;;;19.44;80.96
52185;BME280;38160;52.876;18.778;2022-10-16T14:20:49;101083.02;;;19.44;81.00
52185;BME280;38160;52.876;18.778;2022-10-16T14:23:38;101076.38;;;19.43;81.06
52185;BME280;38160;52.876;18.778;2022-10-16T14:26:13;101079.45;;;19.37;81.06
52185;BME280;38160;52.876;18.778;2022-10-16T14:28:47;101087.66;;;19.30;81.13
52185;BME280;38160;52.876;18.778;2022-10-16T14:31:29;101089.44;;;19.27;81.07
52185;BME280;38160;52.876;18.778;2022-10-16T14:34:04;101089.34;;;19.25;81.25
52185;BME280;38160;52.876;18.778;2022-10-16T14:37:08;101088.50;;;19.24;81.25
52185;BME280;38160;52.876;18.778;2022-10-16T14:39:51;101104.81;;;19.22;81.21
52185;BME280;38160;52.876;18.778;2022-10-16T14:42:25;101107.22;;;19.21;81.19
52185;BME280;38160;52.876;18.778;2022-10-16T14:44:57;101097.24;;;19.17;81.30
52185;BME280;38160;52.876;18.778;2022-10-16T14:47:29;101101.84;;;19.16;81.33
52185;BME280;38160;52.876;18.778;2022-10-16T14:50:03;101103.22;;;19.16;81.22
52185;BME280;38160;52.876;18.778;2022-10-16T14:52:36;101114.80;;;19.12;81.26
52185;BME280;38160;52.876;18.778;2022-10-16T14:55:09;101109.02;;;19.04;81.30
52185;BME280;38160;52.876;18.778;2022-10-16T14:57:42;101108.37;;;19.02;81.36